createdAt,value
2022-11-18T00:01:21.866Z,58.21
2022-11-18T00:03:50.264Z,58.42
2022-11-18T00:06:20.959Z,58.19
2022-11-18T00:08:48.859Z,58.36
2022-11-18T00:11:41.911Z,58.62
2022-11-18T00:14:20.654Z,58.61
2022-11-18T00:17:01.553Z,58.35
2022-11-18T00:19:37.772Z,58.44
2022-11-18T00:22:06.940Z,58.13
2022-11-18T00:24:34.297Z,58.06
2022-11-18T00:27:01.343Z,58.08
2022-11-18T00:29:28.814Z,58.64
2022-11-18T00:31:57.238Z,58.18
2022-11-18T00:34:25.275Z,58.43
2022-11-18T00:36:52.350Z,58.44
2022-11-18T00:39:20.981Z,58.31
2022-11-18T00:42:07.717Z,58.21
2022-11-18T00:44:35.084Z,58.38
2022-11-18T00:47:02.180Z,58.33
2022-11-18T00:49:29.363Z,58.46
2022-11-18T00:51:56.560Z,58.65
2022-11-18T00:54:23.675Z,58.57
2022-11-18T00:56:50.758Z,58.76
2022-11-18T00:59:18.148Z,58.61
2022-11-18T01:01:45.504Z,58.56
2022-11-18T01:04:12.636Z,58.73
2022-11-18T01:06:39.876Z,58.67
2022-11-18T01:09:07.514Z,58.90
2022-11-18T01:11:52.854Z,58.71
2022-11-18T01:14:19.970Z,58.88
2022-11-18T01:16:51.298Z,58.59
2022-11-18T01:19:19.685Z,58.49
2022-11-18T01:21:47.410Z,58.93
2022-11-18T01:24:14.580Z,58.85
2022-11-18T01:26:42.071Z,58.87
2022-11-18T01:29:09.540Z,58.85
2022-11-18T01:31:50.116Z,58.95
2022-11-18T01:34:28.253Z,58.35
2022-11-18T01:36:56.531Z,58.19
2022-11-18T01:39:23.563Z,58.70
2022-11-18T01:41:50.684Z,58.91
2022-11-18T01:45:10.457Z,58.62
2022-11-18T01:47:43.364Z,59.03
2022-11-18T01:50:11.198Z,58.99
2022-11-18T01:52:39.391Z,59.16
2022-11-18T01:55:20.914Z,58.95
2022-11-18T01:57:50.210Z,58.79
2022-11-18T02:00:18.158Z,58.83
2022-11-18T02:02:46.087Z,59.02
2022-11-18T02:05:14.712Z,58.72
2022-11-18T02:07:43.561Z,58.33
2022-11-18T02:10:18.814Z,58.16
2022-11-18T02:12:45.957Z,58.41
2022-11-18T02:15:13.143Z,58.66
2022-11-18T02:18:17.337Z,59.05
2022-11-18T02:20:51.327Z,59.29
2022-11-18T02:24:03.658Z,58.91
2022-11-18T02:26:54.432Z,58.79
2022-11-18T02:29:31.738Z,59.30
2022-11-18T02:32:05.257Z,59.29
2022-11-18T02:34:44.119Z,59.04
2022-11-18T02:37:36.396Z,59.18
2022-11-18T02:40:29.378Z,59.48
2022-11-18T02:43:29.540Z,59.20
2022-11-18T02:46:08.766Z,58.46
2022-11-18T02:48:41.639Z,58.73
2022-11-18T02:51:10.574Z,58.68
2022-11-18T02:53:40.382Z,58.33
2022-11-18T02:56:08.861Z,58.53
2022-11-18T02:58:35.925Z,58.76
2022-11-18T03:01:03.185Z,58.82
2022-11-18T03:03:35.122Z,58.66
2022-11-18T03:06:30.158Z,59.02
2022-11-18T03:09:11.132Z,58.50
2022-11-18T03:11:58.586Z,58.75
2022-11-18T03:15:24.235Z,59.09
2022-11-18T03:18:18.680Z,58.84
2022-11-18T03:21:15.431Z,59.20
2022-11-18T03:24:25.904Z,59.00
2022-11-18T03:27:05.918Z,59.06
2022-11-18T03:29:37.117Z,58.37
2022-11-18T03:32:12.373Z,58.61
2022-11-18T03:34:48.156Z,59.06
2022-11-18T03:37:19.128Z,58.84
2022-11-18T03:39:53.727Z,58.58
2022-11-18T03:42:39.476Z,58.57
2022-11-18T03:45:51.138Z,58.59
2022-11-18T03:48:53.300Z,58.86
2022-11-18T03:51:33.989Z,59.17
2022-11-18T03:54:11.957Z,58.91
2022-11-18T03:56:46.464Z,59.24
2022-11-18T03:59:17.856Z,59.82
2022-11-18T04:02:25.142Z,59.46
2022-11-18T04:04:54.423Z,59.54
2022-11-18T04:07:38.111Z,59.76
2022-11-18T04:10:17.547Z,59.34
2022-11-18T04:13:09.838Z,59.67
2022-11-18T04:15:42.156Z,59.15
2022-11-18T04:18:10.464Z,59.07
2022-11-18T04:20:37.920Z,59.11
2022-11-18T04:23:07.428Z,59.24
2022-11-18T04:25:35.089Z,59.45
2022-11-18T04:28:02.688Z,59.56
2022-11-18T04:30:30.667Z,59.42
2022-11-18T04:32:58.414Z,58.84
2022-11-18T04:35:26.340Z,59.00
2022-11-18T04:37:53.950Z,59.30
2022-11-18T04:40:21.393Z,59.24
2022-11-18T04:42:48.430Z,58.94
2022-11-18T04:45:15.483Z,58.55
2022-11-18T04:47:42.503Z,59.07
2022-11-18T04:50:10.116Z,59.27
2022-11-18T04:52:37.234Z,58.82
2022-11-18T04:55:04.753Z,57.77
2022-11-18T04:57:31.817Z,57.63
2022-11-18T04:59:58.903Z,57.90
2022-11-18T05:02:25.966Z,58.08
2022-11-18T05:04:53.654Z,57.92
2022-11-18T05:07:20.816Z,57.83
2022-11-18T05:09:47.905Z,57.91
2022-11-18T05:12:33.787Z,57.94
2022-11-18T05:15:01.334Z,58.40
2022-11-18T05:17:28.638Z,58.07
2022-11-18T05:19:55.811Z,57.83
2022-11-18T05:22:22.891Z,57.66
2022-11-18T05:24:49.929Z,57.71
2022-11-18T05:27:17.431Z,57.44
2022-11-18T05:29:44.650Z,57.57
2022-11-18T05:32:11.700Z,57.35
2022-11-18T05:34:40.981Z,57.09
2022-11-18T05:37:08.095Z,57.20
2022-11-18T05:39:35.454Z,57.31
2022-11-18T05:42:21.496Z,57.54
2022-11-18T05:44:53.068Z,57.14
2022-11-18T05:47:25.008Z,56.92
2022-11-18T05:49:52.040Z,56.92
2022-11-18T05:52:19.101Z,56.78
2022-11-18T05:54:51.150Z,57.08
2022-11-18T05:57:18.306Z,57.17
2022-11-18T05:59:45.247Z,56.63
2022-11-18T06:02:21.647Z,56.78
2022-11-18T06:04:58.145Z,56.96
2022-11-18T06:07:43.408Z,57.72
2022-11-18T06:10:25.812Z,57.71
2022-11-18T06:12:57.670Z,57.19
2022-11-18T06:15:28.563Z,56.83
2022-11-18T06:18:01.655Z,57.13
2022-11-18T06:20:31.477Z,56.82
2022-11-18T06:22:58.940Z,56.81
2022-11-18T06:25:26.140Z,57.04
2022-11-18T06:27:57.547Z,57.20
2022-11-18T06:30:24.821Z,57.37
2022-11-18T06:32:51.953Z,56.99
2022-11-18T06:35:19.031Z,56.64
2022-11-18T06:37:47.676Z,56.56
2022-11-18T06:40:14.843Z,56.69
2022-11-18T06:43:00.732Z,57.05
2022-11-18T06:45:27.832Z,56.89
2022-11-18T06:48:00.378Z,57.32
2022-11-18T06:50:28.483Z,57.52
2022-11-18T06:52:56.011Z,56.89
2022-11-18T06:55:23.214Z,57.19
2022-11-18T06:57:50.222Z,57.20
2022-11-18T07:00:18.088Z,56.94
2022-11-18T07:02:45.128Z,56.50
2022-11-18T07:05:12.224Z,56.74
2022-11-18T07:07:42.264Z,56.94
2022-11-18T07:10:10.334Z,56.85
2022-11-18T07:12:37.414Z,57.18
2022-11-18T07:15:04.789Z,57.05
2022-11-18T07:17:32.113Z,56.99
2022-11-18T07:19:59.246Z,57.41
2022-11-18T07:22:26.405Z,57.56
2022-11-18T07:24:53.479Z,58.04
2022-11-18T07:27:20.521Z,57.77
2022-11-18T07:29:47.564Z,57.39
2022-11-18T07:32:14.600Z,57.26
2022-11-18T07:34:41.658Z,57.01
2022-11-18T07:37:08.722Z,57.66
2022-11-18T07:39:35.824Z,57.49
2022-11-18T07:42:02.978Z,57.95
2022-11-18T07:44:30.115Z,57.83
2022-11-18T07:46:58.800Z,57.73
2022-11-18T07:49:25.851Z,57.91
2022-11-18T07:51:53.746Z,58.04
2022-11-18T07:54:20.874Z,57.93
2022-11-18T07:56:48.010Z,57.93
2022-11-18T07:59:15.100Z,57.88
2022-11-18T08:01:42.375Z,58.23
2022-11-18T08:04:13.270Z,58.17
2022-11-18T08:06:41.031Z,58.08
2022-11-18T08:09:08.894Z,57.84
2022-11-18T08:11:36.702Z,57.78
2022-11-18T08:14:03.902Z,58.08
2022-11-18T08:16:31.160Z,58.02
2022-11-18T08:19:00.649Z,57.75
2022-11-18T08:21:28.374Z,57.83
2022-11-18T08:23:58.119Z,57.98
2022-11-18T08:26:27.025Z,57.68
2022-11-18T08:28:54.449Z,57.33
2022-11-18T08:31:25.944Z,57.32
2022-11-18T08:34:01.877Z,57.14
2022-11-18T08:36:32.256Z,57.31
2022-11-18T08:39:01.574Z,58.18
2022-11-18T08:41:34.098Z,57.90
2022-11-18T08:44:03.080Z,57.70
2022-11-18T08:46:30.777Z,57.06
2022-11-18T08:48:59.217Z,56.76
2022-11-18T08:51:26.913Z,56.87
2022-11-18T08:53:54.242Z,57.01
2022-11-18T08:56:24.310Z,56.50
2022-11-18T08:58:52.267Z,55.81
2022-11-18T09:01:19.536Z,55.97
2022-11-18T09:03:48.388Z,55.42
2022-11-18T09:06:20.129Z,55.42
2022-11-18T09:08:47.738Z,55.82
2022-11-18T09:11:19.258Z,55.62
2022-11-18T09:14:25.993Z,55.75
2022-11-18T09:16:35.690Z,55.48
2022-11-18T09:19:18.577Z,55.68
2022-11-18T09:21:50.800Z,55.70
2022-11-18T09:24:18.035Z,55.15
2022-11-18T09:26:45.887Z,55.24
2022-11-18T09:29:13.022Z,55.13
2022-11-18T09:31:40.441Z,55.13
2022-11-18T09:34:10.291Z,55.15
2022-11-18T09:36:37.530Z,55.39
2022-11-18T09:39:04.788Z,55.74
2022-11-18T09:41:51.506Z,55.04
2022-11-18T09:44:36.847Z,55.04
2022-11-18T09:47:32.380Z,54.71
2022-11-18T09:50:48.552Z,55.39
2022-11-18T09:53:22.966Z,55.36
2022-11-18T09:55:52.725Z,55.24
2022-11-18T09:58:35.489Z,55.65
2022-11-18T10:01:04.288Z,55.59
2022-11-18T10:03:33.514Z,55.55
2022-11-18T10:06:10.336Z,56.02
2022-11-18T10:09:14.395Z,56.45
2022-11-18T10:12:09.879Z,56.18
2022-11-18T10:15:21.333Z,55.84
2022-11-18T10:18:07.959Z,55.18
2022-11-18T10:21:28.736Z,56.04
2022-11-18T10:24:03.310Z,55.73
2022-11-18T10:26:41.890Z,55.16
2022-11-18T10:29:12.252Z,55.48
2022-11-18T10:32:08.252Z,55.72
2022-11-18T10:34:48.816Z,55.67
2022-11-18T10:37:38.724Z,55.41
2022-11-18T10:40:28.289Z,55.40
2022-11-18T10:42:56.067Z,54.75
2022-11-18T10:45:23.103Z,54.91
2022-11-18T10:48:06.739Z,54.53
2022-11-18T10:50:56.061Z,54.33
2022-11-18T10:53:31.587Z,54.08
2022-11-18T10:56:09.050Z,54.50
2022-11-18T10:58:45.255Z,54.41
2022-11-18T11:01:27.765Z,54.26
2022-11-18T11:04:07.252Z,54.50
2022-11-18T11:06:39.755Z,54.84
2022-11-18T11:09:23.879Z,55.29
2022-11-18T11:12:12.925Z,55.06
2022-11-18T11:14:42.670Z,55.53
2022-11-18T11:17:14.121Z,54.88
2022-11-18T11:19:49.312Z,55.24
2022-11-18T11:22:16.959Z,55.09
2022-11-18T11:24:44.403Z,55.52
2022-11-18T11:30:22.612Z,55.09
2022-11-18T11:33:52.449Z,54.66
2022-11-18T11:36:47.310Z,54.81
2022-11-18T11:39:40.298Z,54.00
2022-11-18T11:42:37.565Z,54.29
2022-11-18T11:46:02.662Z,54.56
2022-11-18T11:48:32.459Z,55.20
2022-11-18T11:51:13.061Z,55.17
2022-11-18T11:54:11.945Z,55.32
2022-11-18T11:56:51.505Z,55.07
2022-11-18T11:59:41.191Z,54.85
2022-11-18T12:02:35.577Z,54.79
2022-11-18T12:05:18.124Z,54.93
2022-11-18T12:07:58.909Z,54.89
2022-11-18T12:10:56.264Z,54.44
2022-11-18T12:13:36.287Z,54.51
2022-11-18T12:16:40.278Z,54.92
2022-11-18T12:19:22.786Z,55.61
2022-11-18T12:21:49.940Z,55.93
2022-11-18T12:24:23.102Z,55.34
2022-11-18T12:26:51.889Z,54.85
2022-11-18T12:29:19.287Z,54.56
2022-11-18T12:31:48.843Z,55.07
2022-11-18T12:34:26.790Z,55.60
2022-11-18T12:36:55.236Z,56.20
2022-11-18T12:39:25.368Z,56.18
2022-11-18T12:42:12.798Z,56.27
2022-11-18T12:44:41.692Z,56.58
2022-11-18T12:47:14.569Z,56.60
2022-11-18T12:49:44.581Z,56.54
2022-11-18T12:52:30.287Z,56.85
2022-11-18T12:55:01.687Z,57.59
2022-11-18T12:57:32.858Z,57.04
2022-11-18T13:00:28.739Z,56.31
2022-11-18T13:02:59.467Z,56.07
2022-11-18T13:05:33.280Z,55.47
2022-11-18T13:08:17.049Z,56.00
2022-11-18T13:10:44.342Z,56.41
2022-11-18T13:13:32.554Z,57.40
2022-11-18T13:16:39.724Z,57.68
2022-11-18T13:19:07.072Z,57.35
2022-11-18T13:21:53.141Z,57.94
2022-11-18T13:24:22.522Z,57.88
2022-11-18T13:26:58.105Z,57.58
2022-11-18T13:29:51.149Z,57.27
2022-11-18T13:32:27.721Z,57.98
2022-11-18T13:34:59.161Z,57.84
2022-11-18T13:37:30.498Z,57.43
2022-11-18T13:39:58.050Z,57.83
2022-11-18T13:42:32.298Z,57.70
2022-11-18T13:45:03.787Z,57.59
2022-11-18T13:47:52.091Z,58.50
2022-11-18T13:50:23.229Z,58.30
2022-11-18T13:53:08.850Z,58.10
2022-11-18T13:55:48.502Z,58.10
2022-11-18T13:58:18.886Z,57.97
2022-11-18T14:01:06.278Z,58.39
2022-11-18T14:03:53.582Z,58.01
2022-11-18T14:06:36.793Z,58.30
2022-11-18T14:09:24.903Z,57.42
2022-11-18T14:12:14.748Z,57.95
2022-11-18T14:14:42.952Z,58.06
2022-11-18T14:17:22.949Z,58.46
2022-11-18T14:19:56.478Z,58.24
2022-11-18T14:22:31.449Z,58.25
2022-11-18T14:25:46.296Z,58.22
2022-11-18T14:28:26.427Z,58.10
2022-11-18T14:31:07.534Z,57.44
2022-11-18T14:33:37.041Z,57.21
2022-11-18T14:36:11.736Z,57.15
2022-11-18T14:39:26.352Z,56.74
2022-11-18T14:41:54.888Z,56.81
2022-11-18T14:44:24.547Z,56.98
2022-11-18T14:47:06.572Z,56.56
2022-11-18T14:49:34.146Z,56.49
2022-11-18T14:52:02.713Z,56.63
2022-11-18T14:54:30.471Z,55.71
2022-11-18T14:57:03.338Z,55.49
2022-11-18T14:59:30.737Z,55.07
2022-11-18T15:01:58.800Z,55.13
2022-11-18T15:04:26.309Z,55.04
2022-11-18T15:06:53.667Z,54.66
2022-11-18T15:09:21.303Z,54.59
2022-11-18T15:11:48.639Z,53.97
2022-11-18T15:14:16.039Z,55.27
2022-11-18T15:16:43.210Z,55.20
2022-11-18T15:19:15.851Z,55.66
2022-11-18T15:21:45.295Z,54.24
2022-11-18T15:24:12.486Z,55.33
2022-11-18T15:26:43.534Z,54.43
2022-11-18T15:29:24.694Z,52.71
2022-11-18T15:31:52.452Z,53.38
2022-11-18T15:34:21.686Z,53.72
2022-11-18T15:36:50.788Z,53.92
2022-11-18T15:39:17.896Z,53.45
2022-11-18T15:41:44.926Z,53.62
2022-11-18T15:44:12.327Z,53.21
2022-11-18T15:46:40.122Z,53.10
2022-11-18T15:49:09.719Z,54.07
2022-11-18T15:51:37.182Z,53.45
2022-11-18T15:54:04.413Z,53.36
2022-11-18T15:56:33.249Z,53.32
2022-11-18T15:59:12.324Z,53.61
2022-11-18T16:01:46.096Z,53.43
2022-11-18T16:04:18.790Z,53.81
2022-11-18T16:06:46.480Z,53.16
2022-11-18T16:09:15.392Z,52.51
2022-11-18T16:12:01.800Z,52.65
2022-11-18T16:14:29.015Z,53.64
2022-11-18T16:16:56.980Z,53.25
2022-11-18T16:19:26.302Z,53.38
2022-11-18T16:21:57.063Z,53.09
2022-11-18T16:24:27.810Z,52.47
2022-11-18T16:26:55.107Z,52.74
2022-11-18T16:29:24.322Z,53.08
2022-11-18T16:31:52.733Z,53.16
2022-11-18T16:34:24.156Z,53.29
2022-11-18T16:37:02.000Z,53.85
2022-11-18T16:39:29.748Z,53.70
2022-11-18T16:42:07.431Z,54.26
2022-11-18T16:44:36.018Z,54.59
2022-11-18T16:47:07.776Z,55.24
2022-11-18T16:49:38.070Z,55.42
2022-11-18T16:52:07.329Z,54.90
2022-11-18T16:54:35.587Z,54.14
2022-11-18T16:57:04.353Z,53.62
2022-11-18T16:59:32.183Z,53.56
2022-11-18T17:02:02.004Z,52.87
2022-11-18T17:04:30.597Z,52.67
2022-11-18T17:07:00.947Z,52.27
2022-11-18T17:09:28.299Z,51.65
2022-11-18T17:11:56.357Z,52.16
2022-11-18T17:14:24.683Z,52.02
2022-11-18T17:16:53.149Z,51.91
2022-11-18T17:19:23.072Z,52.10
2022-11-18T17:21:53.476Z,51.74
2022-11-18T17:24:23.148Z,51.14
2022-11-18T17:26:52.185Z,51.62
2022-11-18T17:29:19.829Z,51.88
2022-11-18T17:31:47.158Z,51.36
2022-11-18T17:34:16.523Z,51.75
2022-11-18T17:36:44.167Z,51.44
2022-11-18T17:39:13.354Z,51.35
2022-11-18T17:41:58.938Z,51.04
2022-11-18T17:44:28.920Z,50.92
2022-11-18T17:46:56.667Z,51.19
2022-11-18T17:49:23.991Z,51.58
2022-11-18T17:51:51.582Z,51.13
2022-11-18T17:54:20.458Z,50.95
2022-11-18T17:56:48.394Z,51.17
2022-11-18T17:59:17.659Z,50.91
2022-11-18T18:01:46.076Z,50.90
2022-11-18T18:04:22.591Z,50.50
2022-11-18T18:06:52.835Z,50.65
2022-11-18T18:09:26.911Z,50.60
2022-11-18T18:11:57.725Z,50.09
2022-11-18T18:14:24.891Z,49.97
2022-11-18T18:16:52.017Z,49.79
2022-11-18T18:19:22.178Z,49.65
2022-11-18T18:21:49.692Z,49.47
2022-11-18T18:24:19.626Z,48.76
2022-11-18T18:26:47.512Z,48.54
2022-11-18T18:29:15.038Z,48.73
2022-11-18T18:31:42.137Z,48.91
2022-11-18T18:34:10.534Z,48.53
2022-11-18T18:36:38.065Z,48.83
2022-11-18T18:39:05.256Z,48.80
2022-11-18T18:41:32.706Z,48.79
2022-11-18T18:44:00.720Z,48.87
2022-11-18T18:46:30.097Z,48.95
2022-11-18T18:49:10.244Z,48.83
2022-11-18T18:51:43.934Z,48.17
2022-11-18T18:54:14.369Z,47.82
2022-11-18T18:56:41.889Z,47.80
2022-11-18T18:59:10.162Z,48.41
2022-11-18T19:01:38.789Z,48.55
2022-11-18T19:04:07.907Z,47.86
2022-11-18T19:09:25.948Z,48.87
2022-11-18T19:12:12.701Z,48.06
2022-11-18T19:14:40.008Z,48.52
2022-11-18T19:17:11.269Z,47.91
2022-11-18T19:19:59.974Z,48.60
2022-11-18T19:22:31.295Z,48.60
2022-11-18T19:27:46.814Z,48.32
2022-11-18T19:30:14.095Z,48.69
2022-11-18T19:32:42.343Z,47.68
2022-11-18T19:35:10.776Z,48.08
2022-11-18T19:37:38.328Z,47.84
2022-11-18T19:40:09.212Z,47.93
2022-11-18T19:42:37.924Z,47.52
2022-11-18T19:45:07.551Z,47.42
2022-11-18T19:47:34.792Z,47.56
2022-11-18T19:50:01.975Z,47.42
2022-11-18T19:52:29.413Z,47.07
2022-11-18T19:54:58.041Z,47.28
2022-11-18T19:57:25.571Z,46.81
2022-11-18T19:59:52.747Z,47.01
2022-11-18T20:02:19.796Z,46.97
2022-11-18T20:05:06.781Z,47.19
2022-11-18T20:07:34.775Z,47.05
2022-11-18T20:10:01.945Z,47.01
2022-11-18T20:12:29.336Z,47.37
2022-11-18T20:14:56.466Z,47.37
2022-11-18T20:17:24.474Z,47.46
2022-11-18T20:19:51.506Z,47.28
2022-11-18T20:22:18.545Z,46.89
2022-11-18T20:24:45.614Z,46.90
2022-11-18T20:27:13.849Z,47.35
2022-11-18T20:29:40.927Z,47.65
2022-11-18T20:32:07.922Z,47.52
2022-11-18T20:34:35.247Z,47.62
2022-11-18T20:37:02.269Z,47.42
2022-11-18T20:39:29.434Z,47.54
2022-11-18T20:42:15.403Z,47.50
2022-11-18T20:44:42.472Z,47.77
2022-11-18T20:47:09.557Z,48.07
2022-11-18T20:49:36.733Z,48.05
2022-11-18T20:52:03.876Z,48.13
2022-11-18T20:54:31.025Z,48.15
2022-11-18T20:56:58.190Z,47.77
2022-11-18T20:59:25.359Z,47.72
2022-11-18T21:01:52.448Z,47.68
2022-11-18T21:04:19.592Z,47.93
2022-11-18T21:06:47.453Z,48.25
2022-11-18T21:09:14.825Z,47.70
2022-11-18T21:11:41.824Z,47.67
2022-11-18T21:14:25.578Z,48.62
2022-11-18T21:17:00.668Z,48.72
2022-11-18T21:19:29.491Z,48.80
2022-11-18T21:21:56.988Z,48.89
2022-11-18T21:24:33.337Z,48.79
2022-11-18T21:27:02.562Z,48.83
2022-11-18T21:29:32.304Z,48.69
2022-11-18T21:32:02.589Z,49.35
2022-11-18T21:34:29.753Z,49.34
2022-11-18T21:36:56.897Z,48.98
2022-11-18T21:39:25.267Z,48.95
2022-11-18T21:41:56.401Z,48.90
2022-11-18T21:44:25.695Z,48.84
2022-11-18T21:46:52.999Z,48.87
2022-11-18T21:49:20.372Z,48.91
2022-11-18T21:51:47.694Z,49.61
2022-11-18T21:54:16.028Z,49.23
2022-11-18T21:56:43.274Z,49.23
2022-11-18T21:59:10.493Z,49.43
2022-11-18T22:01:37.894Z,49.51
2022-11-18T22:04:05.868Z,49.45
2022-11-18T22:06:34.672Z,49.43
2022-11-18T22:09:04.005Z,49.74
2022-11-18T22:11:31.154Z,49.61
2022-11-18T22:13:58.347Z,49.43
2022-11-18T22:16:27.020Z,49.92
2022-11-18T22:19:01.509Z,49.76
2022-11-18T22:21:31.024Z,50.14
2022-11-18T22:24:00.171Z,49.81
2022-11-18T22:26:28.595Z,49.90
2022-11-18T22:28:58.028Z,49.38
2022-11-18T22:31:27.923Z,49.41
2022-11-18T22:33:56.329Z,49.72
2022-11-18T22:36:26.063Z,49.51
2022-11-18T22:38:54.625Z,49.90
2022-11-18T22:41:48.581Z,50.37
2022-11-18T22:44:16.683Z,50.54
2022-11-18T22:46:45.598Z,50.28
2022-11-18T22:49:13.152Z,50.48
2022-11-18T22:51:40.905Z,50.22
2022-11-18T22:56:56.831Z,50.41
2022-11-18T22:59:24.907Z,50.46
2022-11-18T23:01:52.660Z,50.65
2022-11-18T23:04:19.699Z,50.27
2022-11-18T23:06:46.773Z,50.31
2022-11-18T23:09:13.981Z,50.66
2022-11-18T23:11:59.551Z,50.30
2022-11-18T23:14:26.609Z,50.06
2022-11-18T23:16:54.862Z,50.32
2022-11-18T23:19:22.290Z,50.21
2022-11-18T23:21:49.613Z,49.87
2022-11-18T23:24:18.811Z,49.54
2022-11-18T23:26:46.710Z,50.43
2022-11-18T23:29:15.241Z,50.65
2022-11-18T23:31:44.312Z,50.22
2022-11-18T23:34:13.976Z,49.92
2022-11-18T23:36:41.563Z,50.24
2022-11-18T23:39:08.713Z,50.21
2022-11-18T23:41:35.841Z,50.81
2022-11-18T23:44:03.506Z,50.56
2022-11-18T23:46:32.399Z,51.21
2022-11-18T23:49:00.038Z,51.12
2022-11-18T23:51:27.083Z,51.24
2022-11-18T23:53:56.743Z,51.61
2022-11-18T23:56:27.116Z,51.76
2022-11-18T23:58:56.321Z,51.69
